createdAt,value
2017-12-29T00:01:41.042Z,10.94
2017-12-29T00:04:12.675Z,11.08
2017-12-29T00:06:45.307Z,11.12
2017-12-29T00:09:17.921Z,11.12
2017-12-29T00:11:50.639Z,11.21
2017-12-29T00:14:22.366Z,11.23
2017-12-29T00:16:58.959Z,11.32
2017-12-29T00:19:29.810Z,11.33
2017-12-29T00:22:02.230Z,11.30
2017-12-29T00:24:34.956Z,11.30
2017-12-29T00:27:10.143Z,11.29
2017-12-29T00:29:41.797Z,11.37
2017-12-29T00:32:12.649Z,11.43
2017-12-29T00:34:42.322Z,11.45
2017-12-29T00:37:15.328Z,11.44
2017-12-29T00:39:46.520Z,11.26
2017-12-29T00:42:18.565Z,11.25
2017-12-29T00:44:51.632Z,11.20
2017-12-29T00:47:24.597Z,11.11
2017-12-29T00:49:57.504Z,11.14
2017-12-29T00:52:31.926Z,11.17
2017-12-29T00:55:04.728Z,11.14
2017-12-29T00:57:40.249Z,11.15
2017-12-29T01:00:11.810Z,11.13
2017-12-29T01:02:43.438Z,11.11
2017-12-29T01:05:13.605Z,11.06
2017-12-29T01:07:45.598Z,11.08
2017-12-29T01:10:16.397Z,11.11
2017-12-29T01:12:48.117Z,11.12
2017-12-29T01:15:19.316Z,11.14
2017-12-29T01:17:51.120Z,11.10
2017-12-29T01:20:24.070Z,11.24
2017-12-29T01:22:57.337Z,11.31
2017-12-29T01:25:30.176Z,11.38
2017-12-29T01:28:00.813Z,11.30
2017-12-29T01:30:33.949Z,11.22
2017-12-29T01:33:07.383Z,11.23
2017-12-29T01:35:37.466Z,11.21
2017-12-29T01:38:09.322Z,11.30
2017-12-29T01:40:39.331Z,11.24
2017-12-29T01:43:12.078Z,11.26
2017-12-29T01:45:43.153Z,11.28
2017-12-29T01:48:16.731Z,11.31
2017-12-29T01:50:49.069Z,11.31
2017-12-29T01:53:19.135Z,11.34
2017-12-29T01:55:49.474Z,11.38
2017-12-29T01:58:19.608Z,11.43
2017-12-29T02:00:49.943Z,11.44
2017-12-29T02:03:22.414Z,11.49
2017-12-29T02:05:56.521Z,11.50
2017-12-29T02:08:30.561Z,11.43
2017-12-29T02:11:03.478Z,11.49
2017-12-29T02:13:38.179Z,11.56
2017-12-29T02:16:12.431Z,11.54
2017-12-29T02:18:46.056Z,11.60
2017-12-29T02:21:21.176Z,11.59
2017-12-29T02:23:54.026Z,11.63
2017-12-29T02:26:28.181Z,11.67
2017-12-29T02:29:02.116Z,11.70
2017-12-29T02:31:36.616Z,11.66
2017-12-29T02:34:12.052Z,11.69
2017-12-29T02:36:46.374Z,11.69
2017-12-29T02:39:19.034Z,11.65
2017-12-29T02:41:53.745Z,11.66
2017-12-29T02:44:27.921Z,11.59
2017-12-29T02:47:02.899Z,11.60
2017-12-29T02:49:36.954Z,11.64
2017-12-29T02:54:42.270Z,11.68
2017-12-29T02:57:15.135Z,11.74
2017-12-29T02:59:46.968Z,11.75
2017-12-29T03:02:20.135Z,11.81
2017-12-29T03:04:52.440Z,11.82
2017-12-29T03:07:26.371Z,11.81
2017-12-29T03:09:59.743Z,11.82
2017-12-29T03:12:33.593Z,11.80
2017-12-29T03:15:06.028Z,11.75
2017-12-29T03:17:35.752Z,11.79
2017-12-29T03:20:09.780Z,11.80
2017-12-29T03:22:40.341Z,11.77
2017-12-29T03:25:12.974Z,11.78
2017-12-29T03:27:42.895Z,11.88
2017-12-29T03:30:16.841Z,11.87
2017-12-29T03:32:48.880Z,11.81
2017-12-29T03:35:19.492Z,11.71
2017-12-29T03:37:48.895Z,11.81
2017-12-29T03:40:21.562Z,11.83
2017-12-29T03:42:54.651Z,11.81
2017-12-29T03:45:25.992Z,11.78
2017-12-29T03:47:57.820Z,11.82
2017-12-29T03:50:33.273Z,11.85
2017-12-29T03:53:04.369Z,11.80
2017-12-29T03:55:37.087Z,11.82
2017-12-29T03:58:09.829Z,11.84
2017-12-29T04:00:42.567Z,11.83
2017-12-29T04:03:14.620Z,11.75
2017-12-29T04:08:25.409Z,11.72
2017-12-29T04:10:55.981Z,11.72
2017-12-29T04:13:25.901Z,11.60
2017-12-29T04:15:55.743Z,11.59
2017-12-29T04:18:25.747Z,11.56
2017-12-29T04:20:57.763Z,11.62
2017-12-29T04:23:28.213Z,11.56
2017-12-29T04:28:35.980Z,11.55
2017-12-29T04:31:06.066Z,11.54
2017-12-29T04:33:37.732Z,11.51
2017-12-29T04:36:07.435Z,11.45
2017-12-29T04:38:37.398Z,11.41
2017-12-29T04:41:08.471Z,11.40
2017-12-29T04:43:38.714Z,11.41
2017-12-29T04:46:09.140Z,11.41
2017-12-29T04:48:39.861Z,11.31
2017-12-29T04:51:12.340Z,11.29
2017-12-29T04:53:44.547Z,11.29
2017-12-29T04:56:16.360Z,11.25
2017-12-29T04:58:50.198Z,11.24
2017-12-29T05:01:21.885Z,11.17
2017-12-29T05:03:54.007Z,11.22
2017-12-29T05:06:24.012Z,11.20
2017-12-29T05:08:56.592Z,11.26
2017-12-29T05:11:26.597Z,11.24
2017-12-29T05:13:58.726Z,11.29
2017-12-29T05:16:31.406Z,11.29
2017-12-29T05:19:03.955Z,11.21
2017-12-29T05:21:36.046Z,11.16
2017-12-29T05:24:08.387Z,11.22
2017-12-29T05:26:41.971Z,11.17
2017-12-29T05:29:14.008Z,11.14
2017-12-29T05:31:44.942Z,11.25
2017-12-29T05:34:17.171Z,11.23
2017-12-29T05:36:48.204Z,11.22
2017-12-29T05:39:22.828Z,11.20
2017-12-29T05:41:52.612Z,11.22
2017-12-29T05:44:22.450Z,11.19
2017-12-29T05:46:53.533Z,11.22
2017-12-29T05:49:23.366Z,11.20
2017-12-29T05:51:57.426Z,11.21
2017-12-29T05:54:30.128Z,11.22
2017-12-29T05:57:03.000Z,11.22
2017-12-29T05:59:33.508Z,11.33
2017-12-29T06:02:03.740Z,11.36
2017-12-29T06:04:35.371Z,11.25
2017-12-29T06:07:09.442Z,11.33
2017-12-29T06:09:41.398Z,11.35
2017-12-29T06:14:50.732Z,11.36
2017-12-29T06:17:26.160Z,11.32
2017-12-29T06:19:56.857Z,11.34
2017-12-29T06:22:27.521Z,11.36
2017-12-29T06:24:57.574Z,11.34
2017-12-29T06:27:29.052Z,11.33
2017-12-29T06:30:00.685Z,11.30
2017-12-29T06:32:33.134Z,11.30
2017-12-29T06:35:03.084Z,11.33
2017-12-29T06:40:13.477Z,11.36
2017-12-29T06:42:47.867Z,11.36
2017-12-29T06:45:18.296Z,11.34
2017-12-29T06:47:52.269Z,11.34
2017-12-29T06:50:24.172Z,11.32
2017-12-29T06:52:54.640Z,11.44
2017-12-29T06:55:25.077Z,11.46
2017-12-29T06:57:56.587Z,11.46
2017-12-29T07:00:30.647Z,11.53
2017-12-29T07:03:01.116Z,11.53
2017-12-29T07:05:32.046Z,11.52
2017-12-29T07:08:05.105Z,11.43
2017-12-29T07:10:37.542Z,11.30
2017-12-29T07:13:11.852Z,11.27
2017-12-29T07:15:44.256Z,11.30
2017-12-29T07:18:19.761Z,11.28
2017-12-29T07:20:53.812Z,11.25
2017-12-29T07:23:29.271Z,11.30
2017-12-29T07:26:02.923Z,11.25
2017-12-29T07:28:35.686Z,11.30
2017-12-29T07:31:08.791Z,11.30
2017-12-29T07:33:41.024Z,11.33
2017-12-29T07:36:11.630Z,11.39
2017-12-29T07:38:41.094Z,11.48
2017-12-29T07:41:11.027Z,11.52
2017-12-29T07:43:40.434Z,11.48
2017-12-29T07:46:10.848Z,11.47
2017-12-29T07:48:43.520Z,11.43
2017-12-29T07:51:13.932Z,11.42
2017-12-29T07:53:43.973Z,11.39
2017-12-29T07:56:14.504Z,11.43
2017-12-29T07:58:45.141Z,11.45
2017-12-29T08:01:17.778Z,11.55
2017-12-29T08:03:47.442Z,11.55
2017-12-29T08:06:22.150Z,11.62
2017-12-29T08:08:53.922Z,11.57
2017-12-29T08:11:28.557Z,11.63
2017-12-29T08:14:01.311Z,11.53
2017-12-29T08:19:06.700Z,11.57
2017-12-29T08:21:35.665Z,11.62
2017-12-29T08:26:40.926Z,11.56
2017-12-29T08:29:10.269Z,11.63
2017-12-29T08:31:39.803Z,11.63
2017-12-29T08:34:08.887Z,11.58
2017-12-29T08:36:37.808Z,11.61
2017-12-29T08:39:07.038Z,11.62
2017-12-29T08:41:37.002Z,11.62
2017-12-29T08:44:05.884Z,11.62
2017-12-29T08:46:35.957Z,11.62
2017-12-29T08:49:05.039Z,11.53
2017-12-29T08:51:33.957Z,11.60
2017-12-29T08:54:08.237Z,11.61
2017-12-29T08:56:38.921Z,11.70
2017-12-29T08:59:08.034Z,11.69
2017-12-29T09:01:39.075Z,11.75
2017-12-29T09:04:08.189Z,11.63
2017-12-29T09:06:37.162Z,11.55
2017-12-29T09:09:06.992Z,11.54
2017-12-29T09:11:36.791Z,11.61
2017-12-29T09:14:05.881Z,11.57
2017-12-29T09:16:38.122Z,11.63
2017-12-29T09:19:07.452Z,11.60
2017-12-29T09:21:38.740Z,11.66
2017-12-29T09:24:09.898Z,11.71
2017-12-29T09:26:41.611Z,11.75
2017-12-29T09:29:13.854Z,11.73
2017-12-29T09:31:43.631Z,11.74
2017-12-29T09:34:12.684Z,11.74
2017-12-29T09:36:41.844Z,11.87
2017-12-29T09:39:11.634Z,11.95
2017-12-29T09:41:40.801Z,11.99
2017-12-29T09:44:12.164Z,12.11
2017-12-29T09:46:41.661Z,12.09
2017-12-29T09:49:10.752Z,12.00
2017-12-29T09:54:14.470Z,11.96
2017-12-29T09:56:43.348Z,11.97
2017-12-29T09:59:13.733Z,12.01
2017-12-29T10:01:43.015Z,11.99
2017-12-29T10:04:16.246Z,12.02
2017-12-29T10:06:45.269Z,11.91
2017-12-29T10:09:14.252Z,11.82
2017-12-29T10:14:17.684Z,11.89
2017-12-29T10:16:46.609Z,11.77
2017-12-29T10:19:16.590Z,11.78
2017-12-29T10:21:45.612Z,11.72
2017-12-29T10:24:14.578Z,11.74
2017-12-29T10:26:43.682Z,11.69
2017-12-29T10:29:12.719Z,11.64
2017-12-29T10:31:41.725Z,11.60
2017-12-29T10:34:12.333Z,11.64
2017-12-29T10:36:42.007Z,11.68
2017-12-29T10:39:11.574Z,11.63
2017-12-29T10:41:41.439Z,11.72
2017-12-29T10:44:10.527Z,11.72
2017-12-29T10:46:39.610Z,11.65
2017-12-29T10:49:08.738Z,11.64
2017-12-29T10:51:37.782Z,11.70
2017-12-29T10:54:07.427Z,11.71
2017-12-29T10:56:37.147Z,11.74
2017-12-29T10:59:06.329Z,11.82
2017-12-29T11:01:35.741Z,11.80
2017-12-29T11:04:04.797Z,11.82
2017-12-29T11:06:34.008Z,11.80
2017-12-29T11:09:03.215Z,11.80
2017-12-29T11:11:33.140Z,11.80
2017-12-29T11:14:02.234Z,11.73
2017-12-29T11:16:31.358Z,11.78
2017-12-29T11:19:01.294Z,11.73
2017-12-29T11:21:30.257Z,11.68
2017-12-29T11:23:59.363Z,11.66
2017-12-29T11:26:29.305Z,11.65
2017-12-29T11:28:58.648Z,11.59
2017-12-29T11:31:27.849Z,11.64
2017-12-29T11:33:57.146Z,11.64
2017-12-29T11:36:30.269Z,11.65
2017-12-29T11:39:00.178Z,11.76
2017-12-29T11:41:29.671Z,11.72
2017-12-29T11:43:58.560Z,11.64
2017-12-29T11:46:31.338Z,11.71
2017-12-29T11:49:00.436Z,11.64
2017-12-29T11:51:29.718Z,11.60
2017-12-29T11:54:00.607Z,11.66
2017-12-29T11:56:29.586Z,11.70
2017-12-29T11:58:59.198Z,11.66
2017-12-29T12:01:28.421Z,11.66
2017-12-29T12:03:58.204Z,11.64
2017-12-29T12:06:27.130Z,11.61
2017-12-29T12:08:56.343Z,11.67
2017-12-29T12:11:25.369Z,11.75
2017-12-29T12:13:54.505Z,11.74
2017-12-29T12:16:23.564Z,11.76
2017-12-29T12:18:54.436Z,11.80
2017-12-29T12:21:23.891Z,11.81
2017-12-29T12:23:53.009Z,11.83
2017-12-29T12:26:22.058Z,11.79
2017-12-29T12:28:51.402Z,11.71
2017-12-29T12:31:21.178Z,11.76
2017-12-29T12:33:50.051Z,11.69
2017-12-29T12:36:19.033Z,11.78
2017-12-29T12:38:50.668Z,11.81
2017-12-29T12:41:19.723Z,11.81
2017-12-29T12:43:52.264Z,11.87
2017-12-29T12:46:22.044Z,11.81
2017-12-29T12:48:53.153Z,11.82
2017-12-29T12:51:25.718Z,11.93
2017-12-29T12:53:55.585Z,12.00
2017-12-29T12:56:24.631Z,12.03
2017-12-29T12:58:54.466Z,12.07
2017-12-29T13:01:23.612Z,11.98
2017-12-29T13:03:52.615Z,11.99
2017-12-29T13:06:22.776Z,12.03
2017-12-29T13:08:54.328Z,12.03
2017-12-29T13:11:24.171Z,11.80
2017-12-29T13:13:53.027Z,11.63
2017-12-29T13:16:22.201Z,11.73
2017-12-29T13:18:52.972Z,11.81
2017-12-29T13:21:22.203Z,11.77
2017-12-29T13:23:51.133Z,11.57
2017-12-29T13:26:21.810Z,11.45
2017-12-29T13:28:50.853Z,11.50
2017-12-29T13:31:20.923Z,11.54
2017-12-29T13:33:50.535Z,11.43
2017-12-29T13:36:19.844Z,11.45
2017-12-29T13:38:49.128Z,11.49
2017-12-29T13:41:18.213Z,11.46
2017-12-29T13:43:48.082Z,11.57
2017-12-29T13:46:17.142Z,11.61
2017-12-29T13:48:47.007Z,11.59
2017-12-29T13:51:16.232Z,11.62
2017-12-29T13:53:45.707Z,11.55
2017-12-29T13:56:14.814Z,11.61
2017-12-29T13:58:44.514Z,11.59
2017-12-29T14:01:15.141Z,11.55
2017-12-29T14:03:47.126Z,11.54
2017-12-29T14:06:18.297Z,11.56
2017-12-29T14:08:53.884Z,11.60
2017-12-29T14:11:24.383Z,11.48
2017-12-29T14:13:53.595Z,11.42
2017-12-29T14:16:23.153Z,11.39
2017-12-29T14:18:52.432Z,11.40
2017-12-29T14:21:22.414Z,11.41
2017-12-29T14:23:52.371Z,11.22
2017-12-29T14:26:21.318Z,11.23
2017-12-29T14:28:50.220Z,11.27
2017-12-29T14:31:22.970Z,11.33
2017-12-29T14:33:52.009Z,11.36
2017-12-29T14:36:21.320Z,11.30
2017-12-29T14:38:50.750Z,11.29
2017-12-29T14:41:20.353Z,11.14
2017-12-29T14:43:50.009Z,11.15
2017-12-29T14:46:19.747Z,11.11
2017-12-29T14:48:48.714Z,11.10
2017-12-29T14:51:17.678Z,11.04
2017-12-29T14:53:53.988Z,10.91
2017-12-29T14:56:23.299Z,10.89
2017-12-29T14:58:52.402Z,10.73
2017-12-29T15:01:23.715Z,10.73
2017-12-29T15:03:52.764Z,10.77
2017-12-29T15:06:22.081Z,10.82
2017-12-29T15:08:51.660Z,10.95
2017-12-29T15:11:21.556Z,11.02
2017-12-29T15:13:50.661Z,11.05
2017-12-29T15:16:20.415Z,11.10
2017-12-29T15:18:49.566Z,11.15
2017-12-29T15:21:18.499Z,11.19
2017-12-29T15:23:48.371Z,11.19
2017-12-29T15:26:17.558Z,11.24
2017-12-29T15:28:46.674Z,11.21
2017-12-29T15:31:16.670Z,11.27
2017-12-29T15:33:45.627Z,11.27
2017-12-29T15:36:14.756Z,11.22
2017-12-29T15:38:43.681Z,11.20
2017-12-29T15:41:12.586Z,11.08
2017-12-29T15:43:41.857Z,11.03
2017-12-29T15:46:14.939Z,10.98
2017-12-29T15:48:44.146Z,10.94
2017-12-29T15:51:14.145Z,10.88
2017-12-29T15:53:43.471Z,10.83
2017-12-29T15:56:13.469Z,10.77
2017-12-29T15:58:43.918Z,10.75
2017-12-29T16:01:26.214Z,10.61
2017-12-29T16:03:55.716Z,10.60
2017-12-29T16:06:24.770Z,10.57
2017-12-29T16:08:55.260Z,10.41
2017-12-29T16:11:24.469Z,10.34
2017-12-29T16:13:53.466Z,10.30
2017-12-29T16:16:25.389Z,10.26
2017-12-29T16:18:54.772Z,10.20
2017-12-29T16:21:23.708Z,10.15
2017-12-29T16:26:26.912Z,10.11
2017-12-29T16:28:56.038Z,10.14
2017-12-29T16:31:26.464Z,10.21
2017-12-29T16:33:55.558Z,10.22
2017-12-29T16:36:24.629Z,10.29
2017-12-29T16:38:53.647Z,10.36
2017-12-29T16:41:22.544Z,10.34
2017-12-29T16:43:52.223Z,10.24
2017-12-29T16:46:22.156Z,10.27
2017-12-29T16:48:51.447Z,10.36
2017-12-29T16:51:20.682Z,10.36
2017-12-29T16:53:50.676Z,10.44
2017-12-29T16:56:19.588Z,10.50
2017-12-29T16:58:49.459Z,10.53
2017-12-29T17:01:18.744Z,10.52
2017-12-29T17:03:48.051Z,10.43
2017-12-29T17:06:16.967Z,10.37
2017-12-29T17:08:46.981Z,10.33
2017-12-29T17:11:16.188Z,10.38
2017-12-29T17:13:46.117Z,10.29
2017-12-29T17:16:21.670Z,10.13
2017-12-29T17:18:50.782Z,10.11
2017-12-29T17:21:19.638Z,10.07
2017-12-29T17:23:48.810Z,10.06
2017-12-29T17:26:18.717Z,10.01
2017-12-29T17:28:55.359Z,9.95
2017-12-29T17:31:26.644Z,9.80
2017-12-29T17:33:55.956Z,9.72
2017-12-29T17:36:25.185Z,9.64
2017-12-29T17:38:54.139Z,9.57
2017-12-29T17:41:23.380Z,9.45
2017-12-29T17:43:52.666Z,9.46
2017-12-29T17:46:21.513Z,9.46
2017-12-29T17:48:50.530Z,9.44
2017-12-29T17:51:21.575Z,9.35
2017-12-29T17:53:51.588Z,9.26
2017-12-29T17:56:20.895Z,9.21
2017-12-29T17:58:50.032Z,9.20
2017-12-29T18:01:19.075Z,9.20
2017-12-29T18:03:49.108Z,9.21
2017-12-29T18:06:18.300Z,9.19
2017-12-29T18:08:48.430Z,9.18
2017-12-29T18:11:18.019Z,9.13
2017-12-29T18:13:49.099Z,9.16
2017-12-29T18:16:18.784Z,9.18
2017-12-29T18:18:48.190Z,9.17
2017-12-29T18:21:19.934Z,9.16
2017-12-29T18:23:51.929Z,9.18
2017-12-29T18:26:23.289Z,9.18
2017-12-29T18:28:57.805Z,9.21
2017-12-29T18:31:30.010Z,9.23
2017-12-29T18:34:03.405Z,9.04
2017-12-29T18:36:34.389Z,9.09
2017-12-29T18:39:03.924Z,9.04
2017-12-29T18:41:33.569Z,9.06
2017-12-29T18:44:05.881Z,9.13
2017-12-29T18:46:35.376Z,9.19
2017-12-29T18:49:05.115Z,9.21
2017-12-29T18:51:34.458Z,9.10
2017-12-29T18:54:03.604Z,9.10
2017-12-29T18:56:33.226Z,9.19
2017-12-29T19:01:36.922Z,9.31
2017-12-29T19:04:06.124Z,9.30
2017-12-29T19:06:35.439Z,9.36
2017-12-29T19:09:05.874Z,9.36
2017-12-29T19:11:35.591Z,9.40
2017-12-29T19:14:05.179Z,9.30
2017-12-29T19:16:35.223Z,9.28
2017-12-29T19:19:04.617Z,9.28
2017-12-29T19:21:36.049Z,9.28
2017-12-29T19:24:05.459Z,9.33
2017-12-29T19:26:34.463Z,9.26
2017-12-29T19:29:06.090Z,9.29
2017-12-29T19:31:35.408Z,9.30
2017-12-29T19:34:05.772Z,9.28
2017-12-29T19:36:37.617Z,9.18
2017-12-29T19:39:07.135Z,9.07
2017-12-29T19:41:37.684Z,9.08
2017-12-29T19:44:07.849Z,9.14
2017-12-29T19:46:36.938Z,9.23
2017-12-29T19:49:06.250Z,9.23
2017-12-29T19:51:35.349Z,9.16
2017-12-29T19:54:05.239Z,9.22
2017-12-29T19:56:35.866Z,9.17
2017-12-29T19:59:05.908Z,9.15
2017-12-29T20:01:37.914Z,9.16
2017-12-29T20:04:08.340Z,9.19
2017-12-29T20:06:37.407Z,9.20
2017-12-29T20:09:15.426Z,9.20
2017-12-29T20:11:45.327Z,9.15
2017-12-29T20:14:14.734Z,9.13
2017-12-29T20:16:44.928Z,9.07
2017-12-29T20:19:15.268Z,9.00
2017-12-29T20:21:45.595Z,8.91
2017-12-29T20:24:15.299Z,8.85
2017-12-29T20:26:45.000Z,8.83
2017-12-29T20:29:15.034Z,8.84
2017-12-29T20:31:45.349Z,8.86
2017-12-29T20:34:14.470Z,8.90
2017-12-29T20:36:44.356Z,8.97
2017-12-29T20:39:14.236Z,9.00
2017-12-29T20:41:44.110Z,9.01
2017-12-29T20:44:13.664Z,9.03
2017-12-29T20:46:42.797Z,9.08
2017-12-29T20:49:12.228Z,9.08
2017-12-29T20:51:41.264Z,9.12
2017-12-29T20:54:12.115Z,9.18
2017-12-29T20:56:41.960Z,9.09
2017-12-29T20:59:12.007Z,8.96
2017-12-29T21:04:16.408Z,8.92
2017-12-29T21:06:45.472Z,8.83
2017-12-29T21:09:17.050Z,8.81
2017-12-29T21:11:51.878Z,8.70
2017-12-29T21:14:21.015Z,8.58
2017-12-29T21:16:50.001Z,8.53
2017-12-29T21:21:53.597Z,8.37
2017-12-29T21:24:22.686Z,8.35
2017-12-29T21:26:52.414Z,8.31
2017-12-29T21:29:21.719Z,8.22
2017-12-29T21:31:51.553Z,8.17
2017-12-29T21:34:21.602Z,8.20
2017-12-29T21:36:51.282Z,8.15
2017-12-29T21:39:21.007Z,8.26
2017-12-29T21:41:51.406Z,8.28
2017-12-29T21:44:20.367Z,8.34
2017-12-29T21:46:50.283Z,8.39
2017-12-29T21:49:20.098Z,8.43
2017-12-29T21:51:49.317Z,8.48
2017-12-29T21:54:18.613Z,8.48
2017-12-29T21:56:53.617Z,8.46
2017-12-29T21:59:22.911Z,8.43
2017-12-29T22:01:52.676Z,8.50
2017-12-29T22:06:57.994Z,8.59
2017-12-29T22:09:28.610Z,8.53
2017-12-29T22:11:58.444Z,8.46
2017-12-29T22:14:30.806Z,8.36
2017-12-29T22:16:59.697Z,8.32
2017-12-29T22:19:28.800Z,8.34
2017-12-29T22:21:57.708Z,8.39
2017-12-29T22:24:27.821Z,8.38
2017-12-29T22:26:57.358Z,8.40
2017-12-29T22:29:27.538Z,8.39
2017-12-29T22:31:56.534Z,8.35
2017-12-29T22:34:25.493Z,8.31
2017-12-29T22:36:54.575Z,8.22
2017-12-29T22:39:23.710Z,8.19
2017-12-29T22:41:52.603Z,8.15
2017-12-29T22:44:21.653Z,8.15
2017-12-29T22:46:50.866Z,8.11
2017-12-29T22:49:19.905Z,8.10
2017-12-29T22:51:48.926Z,8.00
2017-12-29T22:54:17.880Z,7.97
2017-12-29T22:56:46.695Z,7.98
2017-12-29T22:59:15.487Z,7.91
2017-12-29T23:01:46.302Z,7.84
2017-12-29T23:04:15.240Z,7.84
2017-12-29T23:06:44.136Z,7.84
2017-12-29T23:09:13.230Z,7.79
2017-12-29T23:11:42.015Z,7.79
2017-12-29T23:14:10.827Z,7.74
2017-12-29T23:16:40.540Z,7.69
2017-12-29T23:19:09.403Z,7.69
2017-12-29T23:21:38.236Z,7.69
2017-12-29T23:24:07.913Z,7.72
2017-12-29T23:26:36.752Z,7.78
2017-12-29T23:29:05.685Z,7.78
2017-12-29T23:34:08.700Z,7.81
2017-12-29T23:36:37.513Z,7.80
2017-12-29T23:39:06.431Z,7.77
2017-12-29T23:41:35.349Z,7.73
2017-12-29T23:44:04.212Z,7.81
2017-12-29T23:46:33.073Z,7.85
2017-12-29T23:49:01.867Z,7.86
2017-12-29T23:51:31.629Z,7.94
2017-12-29T23:54:00.503Z,7.97
2017-12-29T23:56:29.416Z,8.05
2017-12-29T23:58:58.251Z,8.06
